sensor_id;sensor_type;location;lat;lon;timestamp;temperature;humidity
1417;DHT22;703;51.162;13.574;2023-07-13T00:01:44;21.10;99.90
1417;DHT22;703;51.162;13.574;2023-07-13T00:04:11;21.00;99.90
1417;DHT22;703;51.162;13.574;2023-07-13T00:06:37;20.90;99.90
1417;DHT22;703;51.162;13.574;2023-07-13T00:09:03;20.90;99.90
1417;DHT22;703;51.162;13.574;2023-07-13T00:11:28;21.00;99.90
1417;DHT22;703;51.162;13.574;2023-07-13T00:13:54;20.90;99.90
1417;DHT22;703;51.162;13.574;2023-07-13T00:16:19;20.90;99.90
1417;DHT22;703;51.162;13.574;2023-07-13T00:18:46;20.80;99.90
1417;DHT22;703;51.162;13.574;2023-07-13T00:21:12;20.70;99.90
1417;DHT22;703;51.162;13.574;2023-07-13T00:23:40;20.50;99.90
1417;DHT22;703;51.162;13.574;2023-07-13T00:26:07;20.40;99.90
1417;DHT22;703;51.162;13.574;2023-07-13T00:28:33;20.40;99.90
1417;DHT22;703;51.162;13.574;2023-07-13T00:30:59;20.50;99.90
1417;DHT22;703;51.162;13.574;2023-07-13T00:33:26;20.40;99.90
1417;DHT22;703;51.162;13.574;2023-07-13T00:35:54;20.30;99.90
1417;DHT22;703;51.162;13.574;2023-07-13T00:38:20;20.30;99.90
1417;DHT22;703;51.162;13.574;2023-07-13T00:40:46;20.30;99.90
1417;DHT22;703;51.162;13.574;2023-07-13T00:43:15;20.30;99.90
1417;DHT22;703;51.162;13.574;2023-07-13T00:48:14;20.30;99.90
1417;DHT22;703;51.162;13.574;2023-07-13T00:50:44;20.20;99.90
1417;DHT22;703;51.162;13.574;2023-07-13T00:53:10;20.20;99.90
1417;DHT22;703;51.162;13.574;2023-07-13T00:55:37;20.20;99.90
1417;DHT22;703;51.162;13.574;2023-07-13T00:58:03;20.20;99.90
1417;DHT22;703;51.162;13.574;2023-07-13T01:00:30;20.20;99.90
1417;DHT22;703;51.162;13.574;2023-07-13T01:02:56;20.20;99.90
1417;DHT22;703;51.162;13.574;2023-07-13T01:05:23;20.20;99.90
1417;DHT22;703;51.162;13.574;2023-07-13T01:07:51;20.20;99.90
1417;DHT22;703;51.162;13.574;2023-07-13T01:10:18;20.10;99.90
1417;DHT22;703;51.162;13.574;2023-07-13T01:12:46;20.10;99.90
1417;DHT22;703;51.162;13.574;2023-07-13T01:18:08;20.10;99.90
1417;DHT22;703;51.162;13.574;2023-07-13T01:20:35;20.00;99.90
1417;DHT22;703;51.162;13.574;2023-07-13T01:23:10;20.00;99.90
1417;DHT22;703;51.162;13.574;2023-07-13T01:25:38;19.90;99.90
1417;DHT22;703;51.162;13.574;2023-07-13T01:28:06;19.90;99.90
1417;DHT22;703;51.162;13.574;2023-07-13T01:30:32;19.90;99.90
1417;DHT22;703;51.162;13.574;2023-07-13T01:32:58;19.90;99.90
1417;DHT22;703;51.162;13.574;2023-07-13T01:35:24;19.90;99.90
1417;DHT22;703;51.162;13.574;2023-07-13T01:37:51;21.80;99.90
1417;DHT22;703;51.162;13.574;2023-07-13T01:40:17;19.80;99.90
1417;DHT22;703;51.162;13.574;2023-07-13T01:42:42;19.70;99.90
1417;DHT22;703;51.162;13.574;2023-07-13T01:45:08;19.70;99.90
1417;DHT22;703;51.162;13.574;2023-07-13T01:47:34;19.60;99.90
1417;DHT22;703;51.162;13.574;2023-07-13T01:49:59;19.60;99.90
1417;DHT22;703;51.162;13.574;2023-07-13T01:52:25;19.50;99.90
1417;DHT22;703;51.162;13.574;2023-07-13T01:54:50;19.50;99.90
1417;DHT22;703;51.162;13.574;2023-07-13T01:57:16;19.50;99.90
1417;DHT22;703;51.162;13.574;2023-07-13T01:59:42;19.40;99.90
1417;DHT22;703;51.162;13.574;2023-07-13T02:02:07;19.40;99.90
1417;DHT22;703;51.162;13.574;2023-07-13T02:04:33;19.40;99.90
1417;DHT22;703;51.162;13.574;2023-07-13T02:06:59;19.40;99.90
1417;DHT22;703;51.162;13.574;2023-07-13T02:09:25;19.30;99.90
1417;DHT22;703;51.162;13.574;2023-07-13T02:11:50;19.20;99.90
1417;DHT22;703;51.162;13.574;2023-07-13T02:14:16;19.20;99.90
1417;DHT22;703;51.162;13.574;2023-07-13T02:16:42;19.20;99.90
1417;DHT22;703;51.162;13.574;2023-07-13T02:19:08;19.20;99.90
1417;DHT22;703;51.162;13.574;2023-07-13T02:21:34;19.20;99.90
1417;DHT22;703;51.162;13.574;2023-07-13T02:24:00;19.20;99.90
1417;DHT22;703;51.162;13.574;2023-07-13T02:26:26;19.20;99.90
1417;DHT22;703;51.162;13.574;2023-07-13T02:28:52;19.10;99.90
1417;DHT22;703;51.162;13.574;2023-07-13T02:31:18;19.00;99.90
1417;DHT22;703;51.162;13.574;2023-07-13T02:33:43;18.90;99.90
1417;DHT22;703;51.162;13.574;2023-07-13T02:36:10;18.90;99.90
1417;DHT22;703;51.162;13.574;2023-07-13T02:38:36;18.80;99.90
1417;DHT22;703;51.162;13.574;2023-07-13T02:41:06;18.80;99.90
1417;DHT22;703;51.162;13.574;2023-07-13T02:43:32;18.80;99.90
1417;DHT22;703;51.162;13.574;2023-07-13T02:45:59;18.70;99.90
1417;DHT22;703;51.162;13.574;2023-07-13T02:48:30;18.60;99.90
1417;DHT22;703;51.162;13.574;2023-07-13T02:50:55;18.50;99.90
1417;DHT22;703;51.162;13.574;2023-07-13T02:53:21;18.50;99.90
1417;DHT22;703;51.162;13.574;2023-07-13T02:55:46;18.50;99.90
1417;DHT22;703;51.162;13.574;2023-07-13T02:58:13;18.50;99.90
1417;DHT22;703;51.162;13.574;2023-07-13T03:00:42;18.40;99.90
1417;DHT22;703;51.162;13.574;2023-07-13T03:03:08;18.40;99.90
1417;DHT22;703;51.162;13.574;2023-07-13T03:05:34;18.40;99.90
1417;DHT22;703;51.162;13.574;2023-07-13T03:07:59;18.20;99.90
1417;DHT22;703;51.162;13.574;2023-07-13T03:10:25;18.10;99.90
1417;DHT22;703;51.162;13.574;2023-07-13T03:12:51;18.10;99.90
1417;DHT22;703;51.162;13.574;2023-07-13T03:15:16;18.10;99.90
1417;DHT22;703;51.162;13.574;2023-07-13T03:17:42;18.10;99.90
1417;DHT22;703;51.162;13.574;2023-07-13T03:20:08;18.00;99.90
1417;DHT22;703;51.162;13.574;2023-07-13T03:22:34;18.00;99.90
1417;DHT22;703;51.162;13.574;2023-07-13T03:24:59;18.00;99.90
1417;DHT22;703;51.162;13.574;2023-07-13T03:27:25;18.10;99.90
1417;DHT22;703;51.162;13.574;2023-07-13T03:29:50;18.00;99.90
1417;DHT22;703;51.162;13.574;2023-07-13T03:32:16;17.90;99.90
1417;DHT22;703;51.162;13.574;2023-07-13T03:34:41;17.90;99.90
1417;DHT22;703;51.162;13.574;2023-07-13T03:37:07;17.80;99.90
1417;DHT22;703;51.162;13.574;2023-07-13T03:39:33;17.70;99.90
1417;DHT22;703;51.162;13.574;2023-07-13T03:41:58;17.70;99.90
1417;DHT22;703;51.162;13.574;2023-07-13T03:44:24;17.70;99.90
1417;DHT22;703;51.162;13.574;2023-07-13T03:46:49;17.80;99.90
1417;DHT22;703;51.162;13.574;2023-07-13T03:49:15;17.90;99.90
1417;DHT22;703;51.162;13.574;2023-07-13T03:51:41;17.90;99.90
1417;DHT22;703;51.162;13.574;2023-07-13T03:54:07;17.80;99.90
1417;DHT22;703;51.162;13.574;2023-07-13T03:56:32;17.70;99.90
1417;DHT22;703;51.162;13.574;2023-07-13T03:58:59;17.70;99.90
1417;DHT22;703;51.162;13.574;2023-07-13T04:01:25;17.70;99.90
1417;DHT22;703;51.162;13.574;2023-07-13T04:03:52;17.70;99.90
1417;DHT22;703;51.162;13.574;2023-07-13T04:06:20;17.60;99.90
1417;DHT22;703;51.162;13.574;2023-07-13T04:08:48;17.70;99.90
1417;DHT22;703;51.162;13.574;2023-07-13T04:11:14;17.70;99.90
1417;DHT22;703;51.162;13.574;2023-07-13T04:13:40;17.80;99.90
1417;DHT22;703;51.162;13.574;2023-07-13T04:16:05;17.90;99.90
1417;DHT22;703;51.162;13.574;2023-07-13T04:18:31;18.00;99.90
1417;DHT22;703;51.162;13.574;2023-07-13T04:20:56;18.00;99.90
1417;DHT22;703;51.162;13.574;2023-07-13T04:23:22;18.10;99.90
1417;DHT22;703;51.162;13.574;2023-07-13T04:25:49;18.10;99.90
1417;DHT22;703;51.162;13.574;2023-07-13T04:28:16;18.10;99.90
1417;DHT22;703;51.162;13.574;2023-07-13T04:30:43;18.10;99.90
1417;DHT22;703;51.162;13.574;2023-07-13T04:33:08;18.10;99.90
1417;DHT22;703;51.162;13.574;2023-07-13T04:35:35;18.00;99.90
1417;DHT22;703;51.162;13.574;2023-07-13T04:38:00;18.10;99.90
1417;DHT22;703;51.162;13.574;2023-07-13T04:40:27;18.10;99.90
1417;DHT22;703;51.162;13.574;2023-07-13T04:42:52;18.00;99.90
1417;DHT22;703;51.162;13.574;2023-07-13T04:45:18;18.20;99.90
1417;DHT22;703;51.162;13.574;2023-07-13T04:47:43;18.20;99.90
1417;DHT22;703;51.162;13.574;2023-07-13T04:50:09;18.50;99.90
1417;DHT22;703;51.162;13.574;2023-07-13T04:52:37;18.50;99.90
1417;DHT22;703;51.162;13.574;2023-07-13T04:55:03;18.70;99.90
1417;DHT22;703;51.162;13.574;2023-07-13T04:57:28;18.80;99.90
1417;DHT22;703;51.162;13.574;2023-07-13T04:59:54;18.60;99.90
1417;DHT22;703;51.162;13.574;2023-07-13T05:02:23;18.70;99.90
1417;DHT22;703;51.162;13.574;2023-07-13T05:04:49;18.80;99.90
1417;DHT22;703;51.162;13.574;2023-07-13T05:07:14;18.80;99.90
1417;DHT22;703;51.162;13.574;2023-07-13T05:09:40;18.80;99.90
1417;DHT22;703;51.162;13.574;2023-07-13T05:12:08;18.90;99.90
1417;DHT22;703;51.162;13.574;2023-07-13T05:14:33;18.90;99.90
1417;DHT22;703;51.162;13.574;2023-07-13T05:16:59;19.00;99.90
1417;DHT22;703;51.162;13.574;2023-07-13T05:19:24;19.10;99.90
1417;DHT22;703;51.162;13.574;2023-07-13T05:21:50;19.10;99.90
1417;DHT22;703;51.162;13.574;2023-07-13T05:24:16;19.30;99.90
1417;DHT22;703;51.162;13.574;2023-07-13T05:26:41;19.40;99.90
1417;DHT22;703;51.162;13.574;2023-07-13T05:29:07;19.40;99.90
1417;DHT22;703;51.162;13.574;2023-07-13T05:31:32;19.30;99.90
1417;DHT22;703;51.162;13.574;2023-07-13T05:33:58;19.30;99.90
1417;DHT22;703;51.162;13.574;2023-07-13T05:36:24;19.40;99.90
1417;DHT22;703;51.162;13.574;2023-07-13T05:38:49;19.50;99.90
1417;DHT22;703;51.162;13.574;2023-07-13T05:41:15;19.50;99.90
1417;DHT22;703;51.162;13.574;2023-07-13T05:43:40;19.60;99.90
1417;DHT22;703;51.162;13.574;2023-07-13T05:46:06;19.70;99.90
1417;DHT22;703;51.162;13.574;2023-07-13T05:48:31;19.60;99.90
1417;DHT22;703;51.162;13.574;2023-07-13T05:50:57;19.60;99.90
1417;DHT22;703;51.162;13.574;2023-07-13T05:53:23;19.60;99.90
1417;DHT22;703;51.162;13.574;2023-07-13T05:55:49;19.60;99.90
1417;DHT22;703;51.162;13.574;2023-07-13T05:58:18;19.60;99.90
1417;DHT22;703;51.162;13.574;2023-07-13T06:00:44;19.50;99.90
1417;DHT22;703;51.162;13.574;2023-07-13T06:03:10;19.50;99.90
1417;DHT22;703;51.162;13.574;2023-07-13T06:05:37;19.70;99.90
1417;DHT22;703;51.162;13.574;2023-07-13T06:08:03;19.90;99.90
1417;DHT22;703;51.162;13.574;2023-07-13T06:10:35;20.00;99.90
1417;DHT22;703;51.162;13.574;2023-07-13T06:13:01;20.00;99.90
1417;DHT22;703;51.162;13.574;2023-07-13T06:15:27;20.20;99.90
1417;DHT22;703;51.162;13.574;2023-07-13T06:17:52;20.40;99.90
1417;DHT22;703;51.162;13.574;2023-07-13T06:20:18;20.70;99.90
1417;DHT22;703;51.162;13.574;2023-07-13T06:22:44;20.90;99.90
1417;DHT22;703;51.162;13.574;2023-07-13T06:25:09;21.00;99.90
1417;DHT22;703;51.162;13.574;2023-07-13T06:27:35;21.00;99.90
1417;DHT22;703;51.162;13.574;2023-07-13T06:30:00;20.90;99.90
1417;DHT22;703;51.162;13.574;2023-07-13T06:32:26;20.90;99.90
1417;DHT22;703;51.162;13.574;2023-07-13T06:34:52;21.00;99.90
1417;DHT22;703;51.162;13.574;2023-07-13T06:37:18;21.20;99.90
1417;DHT22;703;51.162;13.574;2023-07-13T06:39:43;21.20;99.90
1417;DHT22;703;51.162;13.574;2023-07-13T06:42:09;21.00;99.90
1417;DHT22;703;51.162;13.574;2023-07-13T06:44:36;20.90;99.90
1417;DHT22;703;51.162;13.574;2023-07-13T06:47:01;20.90;99.90
1417;DHT22;703;51.162;13.574;2023-07-13T06:49:27;21.20;99.90
1417;DHT22;703;51.162;13.574;2023-07-13T06:51:52;21.50;99.90
1417;DHT22;703;51.162;13.574;2023-07-13T06:54:18;21.80;99.90
1417;DHT22;703;51.162;13.574;2023-07-13T06:56:44;21.90;99.90
1417;DHT22;703;51.162;13.574;2023-07-13T06:59:09;21.90;99.90
1417;DHT22;703;51.162;13.574;2023-07-13T07:01:35;21.70;99.90
1417;DHT22;703;51.162;13.574;2023-07-13T07:04:00;21.70;99.90
1417;DHT22;703;51.162;13.574;2023-07-13T07:06:26;21.70;99.90
1417;DHT22;703;51.162;13.574;2023-07-13T07:08:52;21.70;99.90
1417;DHT22;703;51.162;13.574;2023-07-13T07:11:23;21.80;99.90
1417;DHT22;703;51.162;13.574;2023-07-13T07:13:50;21.70;99.90
1417;DHT22;703;51.162;13.574;2023-07-13T07:16:17;21.70;99.90
1417;DHT22;703;51.162;13.574;2023-07-13T07:18:43;21.90;99.90
1417;DHT22;703;51.162;13.574;2023-07-13T07:21:09;21.80;99.90
1417;DHT22;703;51.162;13.574;2023-07-13T07:23:35;21.90;99.90
1417;DHT22;703;51.162;13.574;2023-07-13T07:26:01;22.10;99.90
1417;DHT22;703;51.162;13.574;2023-07-13T07:28:27;22.00;99.90
1417;DHT22;703;51.162;13.574;2023-07-13T07:30:55;22.40;99.90
1417;DHT22;703;51.162;13.574;2023-07-13T07:33:21;22.30;99.90
1417;DHT22;703;51.162;13.574;2023-07-13T07:35:47;22.30;99.90
1417;DHT22;703;51.162;13.574;2023-07-13T07:38:13;22.10;99.90
1417;DHT22;703;51.162;13.574;2023-07-13T07:40:39;22.30;99.90
1417;DHT22;703;51.162;13.574;2023-07-13T07:43:09;22.30;99.90
1417;DHT22;703;51.162;13.574;2023-07-13T07:45:35;22.40;99.90
1417;DHT22;703;51.162;13.574;2023-07-13T07:48:03;22.60;99.90
1417;DHT22;703;51.162;13.574;2023-07-13T07:50:29;22.60;99.90
1417;DHT22;703;51.162;13.574;2023-07-13T07:52:55;22.90;99.90
1417;DHT22;703;51.162;13.574;2023-07-13T07:55:25;22.90;99.90
1417;DHT22;703;51.162;13.574;2023-07-13T07:57:52;22.90;99.90
1417;DHT22;703;51.162;13.574;2023-07-13T08:00:18;23.20;99.90
1417;DHT22;703;51.162;13.574;2023-07-13T08:02:44;23.40;99.90
1417;DHT22;703;51.162;13.574;2023-07-13T08:05:10;23.30;99.90
1417;DHT22;703;51.162;13.574;2023-07-13T08:07:37;23.40;99.90
1417;DHT22;703;51.162;13.574;2023-07-13T08:10:03;23.60;99.90
1417;DHT22;703;51.162;13.574;2023-07-13T08:12:29;23.50;99.90
1417;DHT22;703;51.162;13.574;2023-07-13T08:14:54;23.60;99.90
1417;DHT22;703;51.162;13.574;2023-07-13T08:17:23;24.00;99.90
1417;DHT22;703;51.162;13.574;2023-07-13T08:19:49;24.40;99.90
1417;DHT22;703;51.162;13.574;2023-07-13T08:22:14;24.70;99.90
1417;DHT22;703;51.162;13.574;2023-07-13T08:24:40;24.50;99.90
1417;DHT22;703;51.162;13.574;2023-07-13T08:27:08;24.40;99.90
1417;DHT22;703;51.162;13.574;2023-07-13T08:29:33;24.50;99.90
1417;DHT22;703;51.162;13.574;2023-07-13T08:31:59;24.60;99.90
1417;DHT22;703;51.162;13.574;2023-07-13T08:34:25;24.40;99.90
1417;DHT22;703;51.162;13.574;2023-07-13T08:36:50;24.80;99.90
1417;DHT22;703;51.162;13.574;2023-07-13T08:39:16;25.10;99.90
1417;DHT22;703;51.162;13.574;2023-07-13T08:41:42;24.90;99.90
1417;DHT22;703;51.162;13.574;2023-07-13T08:44:19;25.20;99.90
1417;DHT22;703;51.162;13.574;2023-07-13T08:46:47;25.50;99.90
1417;DHT22;703;51.162;13.574;2023-07-13T08:49:21;25.20;99.90
1417;DHT22;703;51.162;13.574;2023-07-13T08:51:53;24.60;99.90
1417;DHT22;703;51.162;13.574;2023-07-13T08:54:48;24.30;99.90
1417;DHT22;703;51.162;13.574;2023-07-13T08:57:16;24.90;99.90
1417;DHT22;703;51.162;13.574;2023-07-13T08:59:43;25.30;99.90
1417;DHT22;703;51.162;13.574;2023-07-13T09:05:17;25.40;99.90
1417;DHT22;703;51.162;13.574;2023-07-13T09:08:12;25.40;99.90
1417;DHT22;703;51.162;13.574;2023-07-13T09:10:52;25.00;99.90
1417;DHT22;703;51.162;13.574;2023-07-13T09:15:50;25.20;99.90
1417;DHT22;703;51.162;13.574;2023-07-13T09:23:36;24.90;99.90
1417;DHT22;703;51.162;13.574;2023-07-13T09:26:21;24.80;99.90
1417;DHT22;703;51.162;13.574;2023-07-13T09:29:23;25.70;99.90
1417;DHT22;703;51.162;13.574;2023-07-13T09:31:54;26.00;99.90
1417;DHT22;703;51.162;13.574;2023-07-13T09:34:20;26.00;99.90
1417;DHT22;703;51.162;13.574;2023-07-13T09:36:46;25.90;99.90
1417;DHT22;703;51.162;13.574;2023-07-13T09:39:27;26.50;99.90
1417;DHT22;703;51.162;13.574;2023-07-13T09:42:22;27.10;99.90
1417;DHT22;703;51.162;13.574;2023-07-13T09:44:58;26.60;99.90
1417;DHT22;703;51.162;13.574;2023-07-13T09:47:25;26.20;99.90
1417;DHT22;703;51.162;13.574;2023-07-13T09:49:59;26.10;99.90
1417;DHT22;703;51.162;13.574;2023-07-13T09:52:25;26.10;99.90
1417;DHT22;703;51.162;13.574;2023-07-13T09:54:53;26.50;99.90
1417;DHT22;703;51.162;13.574;2023-07-13T09:57:26;26.70;99.90
1417;DHT22;703;51.162;13.574;2023-07-13T09:59:54;26.30;99.90
1417;DHT22;703;51.162;13.574;2023-07-13T10:05:04;26.90;99.90
1417;DHT22;703;51.162;13.574;2023-07-13T10:07:31;26.60;99.90
1417;DHT22;703;51.162;13.574;2023-07-13T10:10:00;26.70;99.90
1417;DHT22;703;51.162;13.574;2023-07-13T10:12:29;26.70;99.90
1417;DHT22;703;51.162;13.574;2023-07-13T10:14:57;27.00;99.90
1417;DHT22;703;51.162;13.574;2023-07-13T10:17:30;27.50;99.90
1417;DHT22;703;51.162;13.574;2023-07-13T10:20:03;26.80;99.90
1417;DHT22;703;51.162;13.574;2023-07-13T10:25:36;26.30;99.90
1417;DHT22;703;51.162;13.574;2023-07-13T10:28:29;26.30;99.90
1417;DHT22;703;51.162;13.574;2023-07-13T10:30:58;26.30;99.90
1417;DHT22;703;51.162;13.574;2023-07-13T10:33:24;25.90;99.90
1417;DHT22;703;51.162;13.574;2023-07-13T10:35:54;26.40;99.90
1417;DHT22;703;51.162;13.574;2023-07-13T10:38:23;26.50;99.90
1417;DHT22;703;51.162;13.574;2023-07-13T10:43:23;26.00;99.90
1417;DHT22;703;51.162;13.574;2023-07-13T10:45:52;25.80;99.90
1417;DHT22;703;51.162;13.574;2023-07-13T10:48:20;26.40;99.90
1417;DHT22;703;51.162;13.574;2023-07-13T10:50:50;25.90;99.90
1417;DHT22;703;51.162;13.574;2023-07-13T10:58:21;26.60;99.90
1417;DHT22;703;51.162;13.574;2023-07-13T11:03:33;26.50;99.90
1417;DHT22;703;51.162;13.574;2023-07-13T11:06:27;27.00;99.90
1417;DHT22;703;51.162;13.574;2023-07-13T11:09:07;27.80;99.90
1417;DHT22;703;51.162;13.574;2023-07-13T11:11:43;27.70;99.90
1417;DHT22;703;51.162;13.574;2023-07-13T11:14:29;26.60;99.90
1417;DHT22;703;51.162;13.574;2023-07-13T11:16:55;26.00;99.90
1417;DHT22;703;51.162;13.574;2023-07-13T11:24:33;25.30;99.90
1417;DHT22;703;51.162;13.574;2023-07-13T11:33:16;26.60;99.90
1417;DHT22;703;51.162;13.574;2023-07-13T11:38:37;27.50;99.90
1417;DHT22;703;51.162;13.574;2023-07-13T11:41:25;27.30;99.90
1417;DHT22;703;51.162;13.574;2023-07-13T11:44:01;27.40;99.90
1417;DHT22;703;51.162;13.574;2023-07-13T11:46:28;27.50;99.90
1417;DHT22;703;51.162;13.574;2023-07-13T11:48:54;27.90;99.90
1417;DHT22;703;51.162;13.574;2023-07-13T11:51:30;27.90;99.90
1417;DHT22;703;51.162;13.574;2023-07-13T11:54:00;28.40;99.90
1417;DHT22;703;51.162;13.574;2023-07-13T11:56:27;28.30;99.90
1417;DHT22;703;51.162;13.574;2023-07-13T11:58:55;28.20;99.90
1417;DHT22;703;51.162;13.574;2023-07-13T12:01:26;28.00;99.90
1417;DHT22;703;51.162;13.574;2023-07-13T12:04:00;28.30;99.90
1417;DHT22;703;51.162;13.574;2023-07-13T12:06:31;28.10;99.90
1417;DHT22;703;51.162;13.574;2023-07-13T12:08:59;28.30;99.90
1417;DHT22;703;51.162;13.574;2023-07-13T12:11:26;28.40;99.90
1417;DHT22;703;51.162;13.574;2023-07-13T12:13:53;28.80;99.90
1417;DHT22;703;51.162;13.574;2023-07-13T12:16:32;28.90;99.90
1417;DHT22;703;51.162;13.574;2023-07-13T12:19:00;28.40;99.90
1417;DHT22;703;51.162;13.574;2023-07-13T12:21:32;28.70;99.90
1417;DHT22;703;51.162;13.574;2023-07-13T12:23:58;28.90;99.90
1417;DHT22;703;51.162;13.574;2023-07-13T12:26:23;28.70;99.90
1417;DHT22;703;51.162;13.574;2023-07-13T12:28:52;28.50;99.90
1417;DHT22;703;51.162;13.574;2023-07-13T12:31:29;28.20;99.90
1417;DHT22;703;51.162;13.574;2023-07-13T12:34:06;27.50;99.90
1417;DHT22;703;51.162;13.574;2023-07-13T12:36:34;26.70;99.90
1417;DHT22;703;51.162;13.574;2023-07-13T12:39:06;27.20;99.90
1417;DHT22;703;51.162;13.574;2023-07-13T12:41:37;27.40;99.90
1417;DHT22;703;51.162;13.574;2023-07-13T12:44:03;28.00;99.90
1417;DHT22;703;51.162;13.574;2023-07-13T12:46:28;28.00;99.90
1417;DHT22;703;51.162;13.574;2023-07-13T12:48:57;28.30;99.90
1417;DHT22;703;51.162;13.574;2023-07-13T12:51:25;28.90;99.90
1417;DHT22;703;51.162;13.574;2023-07-13T12:53:59;28.00;99.90
1417;DHT22;703;51.162;13.574;2023-07-13T12:56:33;27.80;99.90
1417;DHT22;703;51.162;13.574;2023-07-13T12:59:03;28.10;99.90
1417;DHT22;703;51.162;13.574;2023-07-13T13:01:33;27.40;99.90
1417;DHT22;703;51.162;13.574;2023-07-13T13:04:02;26.90;99.90
1417;DHT22;703;51.162;13.574;2023-07-13T13:06:32;27.30;99.90
1417;DHT22;703;51.162;13.574;2023-07-13T13:08:59;27.50;99.90
1417;DHT22;703;51.162;13.574;2023-07-13T13:11:27;27.90;99.90
1417;DHT22;703;51.162;13.574;2023-07-13T13:13:53;28.80;99.90
1417;DHT22;703;51.162;13.574;2023-07-13T13:19:27;28.00;99.90
1417;DHT22;703;51.162;13.574;2023-07-13T13:21:55;27.50;99.90
1417;DHT22;703;51.162;13.574;2023-07-13T13:24:24;27.60;99.90
1417;DHT22;703;51.162;13.574;2023-07-13T13:26:51;27.80;99.90
1417;DHT22;703;51.162;13.574;2023-07-13T13:29:23;27.60;99.90
1417;DHT22;703;51.162;13.574;2023-07-13T13:31:50;27.60;99.90
1417;DHT22;703;51.162;13.574;2023-07-13T13:34:17;28.30;99.90
1417;DHT22;703;51.162;13.574;2023-07-13T13:36:45;28.50;99.90
1417;DHT22;703;51.162;13.574;2023-07-13T13:39:24;28.80;99.90
1417;DHT22;703;51.162;13.574;2023-07-13T13:41:51;28.80;99.90
1417;DHT22;703;51.162;13.574;2023-07-13T13:44:18;28.80;99.90
1417;DHT22;703;51.162;13.574;2023-07-13T13:46:46;29.00;99.90
1417;DHT22;703;51.162;13.574;2023-07-13T13:49:15;29.60;99.90
1417;DHT22;703;51.162;13.574;2023-07-13T13:51:41;29.40;99.90
1417;DHT22;703;51.162;13.574;2023-07-13T13:54:14;28.40;99.90
1417;DHT22;703;51.162;13.574;2023-07-13T13:56:44;27.90;99.90
1417;DHT22;703;51.162;13.574;2023-07-13T13:59:11;28.40;99.90
1417;DHT22;703;51.162;13.574;2023-07-13T14:01:38;28.50;99.90
1417;DHT22;703;51.162;13.574;2023-07-13T14:04:04;28.80;99.90
1417;DHT22;703;51.162;13.574;2023-07-13T14:06:32;28.70;99.90
1417;DHT22;703;51.162;13.574;2023-07-13T14:08:59;28.30;99.90
1417;DHT22;703;51.162;13.574;2023-07-13T14:11:25;28.70;99.90
1417;DHT22;703;51.162;13.574;2023-07-13T14:13:57;29.10;99.90
1417;DHT22;703;51.162;13.574;2023-07-13T14:16:33;29.10;99.90
1417;DHT22;703;51.162;13.574;2023-07-13T14:18:59;29.10;99.90
1417;DHT22;703;51.162;13.574;2023-07-13T14:21:27;28.80;99.90
1417;DHT22;703;51.162;13.574;2023-07-13T14:23:53;28.90;99.90
1417;DHT22;703;51.162;13.574;2023-07-13T14:26:20;29.20;99.90
1417;DHT22;703;51.162;13.574;2023-07-13T14:28:52;29.10;99.90
1417;DHT22;703;51.162;13.574;2023-07-13T14:31:19;28.90;99.90
1417;DHT22;703;51.162;13.574;2023-07-13T14:33:45;29.30;99.90
1417;DHT22;703;51.162;13.574;2023-07-13T14:36:49;29.40;99.90
1417;DHT22;703;51.162;13.574;2023-07-13T14:39:18;29.00;99.90
1417;DHT22;703;51.162;13.574;2023-07-13T14:41:44;28.50;99.90
1417;DHT22;703;51.162;13.574;2023-07-13T14:44:14;28.40;99.90
1417;DHT22;703;51.162;13.574;2023-07-13T14:46:41;28.40;99.90
1417;DHT22;703;51.162;13.574;2023-07-13T14:49:34;28.40;99.90
1417;DHT22;703;51.162;13.574;2023-07-13T14:52:05;28.60;99.90
1417;DHT22;703;51.162;13.574;2023-07-13T14:54:31;29.00;99.90
1417;DHT22;703;51.162;13.574;2023-07-13T14:56:56;29.10;99.90
1417;DHT22;703;51.162;13.574;2023-07-13T14:59:22;29.00;99.90
1417;DHT22;703;51.162;13.574;2023-07-13T15:01:49;28.50;99.90
1417;DHT22;703;51.162;13.574;2023-07-13T15:04:16;28.10;99.90
1417;DHT22;703;51.162;13.574;2023-07-13T15:07:00;28.10;99.90
1417;DHT22;703;51.162;13.574;2023-07-13T15:09:27;28.50;99.90
1417;DHT22;703;51.162;13.574;2023-07-13T15:11:55;28.50;99.90
1417;DHT22;703;51.162;13.574;2023-07-13T15:14:22;28.50;99.90
1417;DHT22;703;51.162;13.574;2023-07-13T15:16:51;28.60;99.90
1417;DHT22;703;51.162;13.574;2023-07-13T15:19:18;28.70;99.90
1417;DHT22;703;51.162;13.574;2023-07-13T15:21:44;29.10;99.90
1417;DHT22;703;51.162;13.574;2023-07-13T15:24:10;29.30;99.90
1417;DHT22;703;51.162;13.574;2023-07-13T15:26:36;28.80;99.90
1417;DHT22;703;51.162;13.574;2023-07-13T15:29:04;28.70;99.90
1417;DHT22;703;51.162;13.574;2023-07-13T15:31:30;28.60;99.90
1417;DHT22;703;51.162;13.574;2023-07-13T15:33:58;28.60;99.90
1417;DHT22;703;51.162;13.574;2023-07-13T15:36:25;28.60;99.90
1417;DHT22;703;51.162;13.574;2023-07-13T15:38:54;28.20;99.90
1417;DHT22;703;51.162;13.574;2023-07-13T15:41:21;28.00;99.90
1417;DHT22;703;51.162;13.574;2023-07-13T15:43:52;28.00;99.90
1417;DHT22;703;51.162;13.574;2023-07-13T15:46:20;28.30;99.90
1417;DHT22;703;51.162;13.574;2023-07-13T15:48:48;28.20;99.90
1417;DHT22;703;51.162;13.574;2023-07-13T15:51:24;27.60;99.90
1417;DHT22;703;51.162;13.574;2023-07-13T15:53:53;27.70;99.90
1417;DHT22;703;51.162;13.574;2023-07-13T15:56:23;28.20;99.90
1417;DHT22;703;51.162;13.574;2023-07-13T15:58:50;28.40;99.90
1417;DHT22;703;51.162;13.574;2023-07-13T16:01:16;28.50;99.90
1417;DHT22;703;51.162;13.574;2023-07-13T16:03:42;28.40;99.90
1417;DHT22;703;51.162;13.574;2023-07-13T16:06:14;28.10;99.90
1417;DHT22;703;51.162;13.574;2023-07-13T16:08:43;28.00;99.90
1417;DHT22;703;51.162;13.574;2023-07-13T16:11:17;27.70;99.90
1417;DHT22;703;51.162;13.574;2023-07-13T16:13:44;27.60;99.90
1417;DHT22;703;51.162;13.574;2023-07-13T16:16:14;27.70;99.90
1417;DHT22;703;51.162;13.574;2023-07-13T16:18:40;27.80;99.90
1417;DHT22;703;51.162;13.574;2023-07-13T16:21:11;27.60;99.90
1417;DHT22;703;51.162;13.574;2023-07-13T16:23:38;27.50;99.90
1417;DHT22;703;51.162;13.574;2023-07-13T16:26:08;27.30;99.90
1417;DHT22;703;51.162;13.574;2023-07-13T16:28:38;27.30;99.90
1417;DHT22;703;51.162;13.574;2023-07-13T16:31:04;27.30;99.90
1417;DHT22;703;51.162;13.574;2023-07-13T16:33:31;27.20;99.90
1417;DHT22;703;51.162;13.574;2023-07-13T16:35:56;27.10;99.90
1417;DHT22;703;51.162;13.574;2023-07-13T16:38:24;27.00;99.90
1417;DHT22;703;51.162;13.574;2023-07-13T16:40:50;27.00;99.90
1417;DHT22;703;51.162;13.574;2023-07-13T16:43:18;26.90;99.90
1417;DHT22;703;51.162;13.574;2023-07-13T16:45:46;27.10;99.90
1417;DHT22;703;51.162;13.574;2023-07-13T16:48:16;27.20;99.90
1417;DHT22;703;51.162;13.574;2023-07-13T16:50:43;27.20;99.90
1417;DHT22;703;51.162;13.574;2023-07-13T16:53:19;27.20;99.90
1417;DHT22;703;51.162;13.574;2023-07-13T16:55:45;27.10;99.90
1417;DHT22;703;51.162;13.574;2023-07-13T16:58:11;26.90;99.90